»·PEaware :: ASA821 KSMF-KSEA

ASA821 :: KSMF-KSEA

FLIGHT INFORMATION

Flight Status: Arrived
Operator:
Alaska Airlines
More flights by this operator :: More flights under this callsign
Pilot: Andre N. (13929)
Aircraft: BOEING 737-800
(B738)
More flights by this aircraft type
Origin: KSMF Sacramento Intl
United States
Destination: KSEA Seattle-Tacoma Intl
United States
More flights between these airports :: More routes between these airports
Route: RBL J65 LMT J189 BTG HAWKZ6
File this flight plan on PilotEdge
Remarks:
Altitude:
(Current/Filed)
34,000ft
Speed:
(Current/Filed)
460kts
Departed: 13-Mar-18 11:03 AM
Arrived: 13-Mar-18 12:32 PM
Distance/Time
Traveled:
526nm/1:29
Distance/Time
To Go:
Arrived

Flight Plot

Page will automatically refresh every two minutes.

Flight plan parsing failed; only flown route is shown


Map Options




Map Legend


Flown Route
Filed Route
Departure Airport
Arrival Airport
Navaid (VOR, NDB)
Fix

Horizontal Profiles

Position Reports

Time Latitude Longitude Heading Altitude Ground
Speed
13-Mar-18 10:33 38.696235 -121.591303 202 30ft 0kts
13-Mar-18 10:34 38.696235 -121.591303 202 30ft 0kts
13-Mar-18 10:35 38.696235 -121.591303 202 30ft 0kts
13-Mar-18 10:36 38.696235 -121.591303 202 30ft 0kts
13-Mar-18 10:37 38.696235 -121.591303 202 30ft 0kts
13-Mar-18 10:38 38.696235 -121.591303 202 30ft 0kts
13-Mar-18 10:39 38.696235 -121.591303 202 30ft 0kts
13-Mar-18 10:40 38.696235 -121.591303 202 30ft 0kts
13-Mar-18 10:41 38.696235 -121.591303 202 30ft 0kts
13-Mar-18 10:42 38.696235 -121.591303 202 30ft 0kts
13-Mar-18 10:43 38.696235 -121.591303 202 30ft 0kts
13-Mar-18 10:44 38.696235 -121.591303 202 30ft 0kts
13-Mar-18 10:45 38.696235 -121.591303 202 30ft 0kts
13-Mar-18 10:46 38.696235 -121.591303 202 30ft 0kts
13-Mar-18 10:47 38.696235 -121.591303 202 30ft 0kts
13-Mar-18 10:48 38.696235 -121.591303 202 30ft 0kts
13-Mar-18 10:49 38.696255 -121.591293 202 30ft 1kts
13-Mar-18 10:50 38.696775 -121.591295 143 30ft 2kts
13-Mar-18 10:51 38.696961 -121.591802 89 30ft 0kts
13-Mar-18 10:52 38.696961 -121.591801 89 30ft 0kts
13-Mar-18 10:53 38.696961 -121.591801 89 30ft 0kts
13-Mar-18 10:54 38.696961 -121.591801 89 30ft 0kts
13-Mar-18 10:55 38.696961 -121.591801 89 30ft 0kts
13-Mar-18 10:56 38.696949 -121.591290 91 30ft 11kts
13-Mar-18 10:57 38.696911 -121.587164 89 30ft 13kts
13-Mar-18 10:58 38.698845 -121.582828 0 30ft 19kts
13-Mar-18 10:59 38.704649 -121.582733 0 30ft 22kts
13-Mar-18 11:00 38.707001 -121.581821 86 30ft 0kts
13-Mar-18 11:01 38.706794 -121.580354 131 30ft 12kts
13-Mar-18 11:02 38.681801 -121.580215 182 791ft 171kts
13-Mar-18 11:03 38.633566 -121.579005 180 3515ft 201kts
13-Mar-18 11:04 38.581422 -121.563997 131 5007ft 218kts
13-Mar-18 11:05 38.600481 -121.500254 16 5018ft 249kts
13-Mar-18 11:06 38.666391 -121.477092 13 6204ft 247kts
13-Mar-18 11:07 38.734899 -121.453803 9 9021ft 280kts
13-Mar-18 11:08 38.799780 -121.475233 329 11415ft 291kts
13-Mar-18 11:09 38.882200 -121.522887 329 13266ft 354kts
13-Mar-18 11:10 38.973561 -121.575475 328 16284ft 370kts
13-Mar-18 11:11 39.067055 -121.629460 327 19070ft 384kts
13-Mar-18 11:12 39.158063 -121.682174 326 21451ft 394kts
13-Mar-18 11:13 39.247767 -121.734304 326 23495ft 403kts
13-Mar-18 11:14 39.345509 -121.791288 325 25454ft 413kts
13-Mar-18 11:15 39.450009 -121.852342 325 27570ft 414kts
13-Mar-18 11:16 39.553117 -121.912683 324 29693ft 407kts
13-Mar-18 11:17 39.647615 -121.968210 323 31395ft 402kts
13-Mar-18 11:18 39.748004 -122.027398 323 33049ft 395kts
13-Mar-18 11:19 39.850583 -122.088464 324 33683ft 415kts
13-Mar-18 11:20 39.958314 -122.152750 324 33926ft 445kts
13-Mar-18 11:21 40.072544 -122.219935 330 33910ft 479kts
13-Mar-18 11:22 40.200277 -122.215610 7 33900ft 527kts
13-Mar-18 11:23 40.331111 -122.179611 8 33882ft 549kts
13-Mar-18 11:24 40.478355 -122.142825 8 33884ft 547kts
13-Mar-18 11:25 40.609730 -122.110245 8 33887ft 547kts
13-Mar-18 11:26 40.756586 -122.073815 8 33890ft 547kts
13-Mar-18 11:27 40.903049 -122.037529 11 33867ft 543kts
13-Mar-18 11:28 41.050714 -122.000826 8 33870ft 548kts
13-Mar-18 11:29 41.184399 -121.967713 9 33852ft 547kts
13-Mar-18 11:30 41.329647 -121.931689 8 33855ft 547kts
13-Mar-18 11:31 41.475546 -121.895511 9 33859ft 547kts
13-Mar-18 11:32 41.623136 -121.858946 10 33863ft 544kts
13-Mar-18 11:33 41.770421 -121.822380 10 33863ft 546kts
13-Mar-18 11:34 41.919232 -121.785475 9 33868ft 547kts
13-Mar-18 11:35 42.067652 -121.748686 9 33872ft 547kts
13-Mar-18 11:36 42.204578 -121.731417 345 33861ft 538kts
13-Mar-18 11:37 42.348590 -121.772630 345 33856ft 538kts
13-Mar-18 11:38 42.495770 -121.808018 345 33859ft 539kts
13-Mar-18 11:39 42.642166 -121.842760 346 33862ft 538kts
13-Mar-18 11:40 42.789227 -121.877664 346 33865ft 539kts
13-Mar-18 11:41 42.936278 -121.912565 346 33868ft 539kts
13-Mar-18 11:42 43.082959 -121.947375 346 33819ft 539kts
13-Mar-18 11:43 43.219675 -121.979825 346 33799ft 540kts
13-Mar-18 11:44 43.356377 -122.012270 346 33801ft 540kts
13-Mar-18 11:45 43.502774 -122.047017 346 33804ft 540kts
13-Mar-18 11:46 43.649104 -122.081749 346 33807ft 540kts
13-Mar-18 11:47 43.795192 -122.116423 346 33810ft 540kts
13-Mar-18 11:48 43.941259 -122.151091 346 33814ft 540kts
13-Mar-18 11:49 44.088238 -122.185976 346 33817ft 540kts
13-Mar-18 11:50 44.225747 -122.218608 346 33810ft 539kts
13-Mar-18 11:51 44.353105 -122.248838 346 33881ft 539kts
13-Mar-18 11:52 44.498744 -122.283400 346 33885ft 538kts
13-Mar-18 11:53 44.640725 -122.317095 346 33887ft 538kts
13-Mar-18 11:54 44.786752 -122.351747 346 33890ft 538kts
13-Mar-18 11:55 44.932327 -122.386284 346 33947ft 538kts
13-Mar-18 11:56 45.077668 -122.422882 345 33950ft 537kts
13-Mar-18 11:57 45.212379 -122.456740 346 33932ft 538kts
13-Mar-18 11:58 45.340314 -122.488942 345 33934ft 537kts
13-Mar-18 11:59 45.483380 -122.524999 346 33937ft 537kts
13-Mar-18 12:00 45.602352 -122.554976 346 33940ft 537kts
13-Mar-18 12:01 45.747756 -122.591722 349 33944ft 535kts
13-Mar-18 12:02 45.916215 -122.633307 352 32397ft 535kts
13-Mar-18 12:03 46.028078 -122.660991 350 31012ft 538kts
13-Mar-18 12:04 46.157891 -122.690485 352 28965ft 527kts
13-Mar-18 12:05 46.294137 -122.717020 352 26532ft 485kts
13-Mar-18 12:06 46.398927 -122.726071 1 24282ft 447kts
13-Mar-18 12:07 46.516924 -122.729320 0 21767ft 433kts
13-Mar-18 12:08 46.631114 -122.733407 0 19223ft 407kts
13-Mar-18 12:09 46.741408 -122.737382 0 16838ft 393kts
13-Mar-18 12:10 46.833529 -122.682240 45 14903ft 363kts
13-Mar-18 12:11 46.907931 -122.596254 45 13358ft 327kts
13-Mar-18 12:12 46.988848 -122.537554 19 12258ft 338kts
13-Mar-18 12:13 47.077594 -122.500733 19 11319ft 332kts
13-Mar-18 12:14 47.149289 -122.486484 8 10570ft 330kts
13-Mar-18 12:15 47.229862 -122.473699 7 9604ft 301kts
13-Mar-18 12:16 47.310471 -122.461579 6 8588ft 295kts
13-Mar-18 12:17 47.382467 -122.453910 357 7576ft 265kts
13-Mar-18 12:18 47.450192 -122.455068 355 6641ft 244kts
13-Mar-18 12:19 47.513745 -122.450969 358 6002ft 210kts
13-Mar-18 12:20 47.571163 -122.445413 359 6006ft 211kts
13-Mar-18 12:21 47.629591 -122.439162 359 5983ft 222kts
13-Mar-18 12:22 47.691065 -122.434552 359 5923ft 233kts
13-Mar-18 12:23 47.738962 -122.397394 89 5243ft 201kts
13-Mar-18 12:24 47.738605 -122.324891 125 4480ft 191kts
13-Mar-18 12:25 47.695745 -122.309260 180 4070ft 161kts
13-Mar-18 12:26 47.652238 -122.309493 180 4081ft 157kts
13-Mar-18 12:27 47.608259 -122.309823 180 3452ft 158kts
13-Mar-18 12:28 47.565811 -122.310068 184 2493ft 144kts
13-Mar-18 12:29 47.525456 -122.310473 185 1685ft 146kts
13-Mar-18 12:30 47.485172 -122.310742 184 897ft 146kts
13-Mar-18 12:31 47.450418 -122.311104 183 441ft 39kts
13-Mar-18 12:32 47.446142 -122.308762 130 441ft 22kts
13-Mar-18 12:33 47.443236 -122.304585 153 440ft 10kts
13-Mar-18 12:34 47.442682 -122.303903 136 440ft 0kts

Navigation Log

Ident Type
Flight plan parsing failed, navigation log unavailable